Time;durP1;ratioP1;P1;durP2;ratioP2;P2;SDS_P1;SDS_P2;PMS_P1;PMS_P2;Temp;Humidity;BMP_temperature;BMP_pressure;BME280_temperature;BME280_humidity;BME280_pressure;Samples;Min_cycle;Max_cycle;Signal;HPM_P1;HPM_P2
2022/04/22 00:00:13;;;;;;;16.43;14.73;;;13.20;99.90;;;;;;5049200;28;20549;-75
2022/04/22 00:02:40;;;;;;;16.53;14.77;;;13.20;99.90;;;;;;5050429;28;20461;-74
2022/04/22 00:05:08;;;;;;;16.13;14.30;;;13.20;99.90;;;;;;5053075;28;20453;-74
2022/04/22 00:07:35;;;;;;;16.43;14.37;;;13.20;99.90;;;;;;5052937;28;20458;-75
2022/04/22 00:10:04;;;;;;;14.30;12.73;;;13.30;99.90;;;;;;5052595;28;20922;-75
2022/04/22 00:12:32;;;;;;;17.53;13.47;;;13.30;99.90;;;;;;5052078;28;20493;-74
2022/04/22 00:14:59;;;;;;;15.87;13.13;;;13.40;99.90;;;;;;5052568;28;20453;-75
2022/04/22 00:17:27;;;;;;;16.97;13.57;;;13.30;99.90;;;;;;5052645;28;20454;-74
2022/04/22 00:19:54;;;;;;;17.07;14.30;;;13.20;99.90;;;;;;5052353;28;20453;-73
2022/04/22 00:22:21;;;;;;;16.77;13.67;;;13.20;99.90;;;;;;5052546;28;20502;-74
2022/04/22 00:24:48;;;;;;;18.70;14.90;;;13.20;99.90;;;;;;5052578;28;20461;-76
2022/04/22 00:27:15;;;;;;;15.43;13.83;;;13.20;99.90;;;;;;5052432;28;20565;-74
2022/04/22 00:29:42;;;;;;;21.80;14.07;;;13.20;99.90;;;;;;5051969;28;20464;-74
2022/04/22 00:32:10;;;;;;;16.43;12.87;;;13.20;99.90;;;;;;5052190;28;20481;-75
2022/04/22 00:34:38;;;;;;;17.57;13.57;;;13.30;99.90;;;;;;5052266;28;20560;-74
2022/04/22 00:37:06;;;;;;;15.97;13.30;;;13.30;99.90;;;;;;5052394;28;20500;-73
2022/04/22 00:39:33;;;;;;;15.57;13.57;;;13.40;99.90;;;;;;5052266;28;20817;-75
2022/04/22 00:42:08;;;;;;;18.63;14.30;;;13.40;99.90;;;;;;5050851;28;20450;-74
2022/04/22 00:44:35;;;;;;;20.27;14.53;;;13.30;99.90;;;;;;5052274;28;20924;-75
2022/04/22 00:47:02;;;;;;;15.03;13.43;;;13.20;99.90;;;;;;5051843;28;20827;-74
2022/04/22 00:49:29;;;;;;;16.17;14.10;;;13.10;99.90;;;;;;5051561;28;21045;-74
2022/04/22 00:51:57;;;;;;;16.00;12.60;;;13.00;99.90;;;;;;5052001;28;20485;-75
2022/04/22 00:54:24;;;;;;;16.40;13.33;;;13.10;99.90;;;;;;5051852;28;20520;-75
2022/04/22 00:56:52;;;;;;;16.77;14.30;;;13.20;99.90;;;;;;5051431;28;20461;-74
2022/04/22 00:59:19;;;;;;;14.77;13.27;;;13.10;99.90;;;;;;5051388;28;20468;-74
2022/04/22 01:01:46;;;;;;;18.50;15.17;;;13.10;99.90;;;;;;5051570;28;20476;-75
2022/04/22 01:09:51;;;;;;;17.10;14.33;;;13.20;99.90;;;;;;5051314;28;20519;-74
2022/04/22 01:12:19;;;;;;;15.30;13.70;;;13.10;99.90;;;;;;5051567;28;21024;-74
2022/04/22 01:14:46;;;;;;;16.30;14.03;;;13.20;99.90;;;;;;5050201;28;20834;-73
2022/04/22 01:17:14;;;;;;;20.17;14.40;;;13.30;99.90;;;;;;5051387;28;20554;-75
2022/04/22 01:19:42;;;;;;;15.80;12.70;;;13.20;99.90;;;;;;5051309;28;20461;-74
2022/04/22 01:22:11;;;;;;;15.23;13.63;;;13.10;99.90;;;;;;5051215;28;20533;-75
2022/04/22 01:24:38;;;;;;;16.23;13.93;;;13.10;99.90;;;;;;5051172;28;20482;-74
2022/04/22 01:27:06;;;;;;;17.47;14.70;;;13.10;99.90;;;;;;5050950;28;20457;-74
2022/04/22 01:29:33;;;;;;;16.57;13.80;;;13.10;99.90;;;;;;5051327;28;20493;-76
2022/04/22 01:32:02;;;;;;;15.67;13.27;;;13.10;99.90;;;;;;5051210;28;20580;-73
2022/04/22 01:34:29;;;;;;;18.47;14.10;;;13.10;99.90;;;;;;5050831;28;20580;-74
2022/04/22 01:36:56;;;;;;;14.23;11.83;;;13.00;99.90;;;;;;5050780;28;20454;-76
2022/04/22 01:39:25;;;;;;;14.53;11.20;;;13.00;99.90;;;;;;5051017;28;20457;-74
2022/04/22 01:41:52;;;;;;;16.00;10.83;;;12.90;99.90;;;;;;5051212;28;20445;-74
2022/04/22 01:44:19;;;;;;;12.67;9.77;;;12.70;99.90;;;;;;5050993;28;20478;-75
2022/04/22 01:46:46;;;;;;;12.60;9.27;;;12.70;99.90;;;;;;5050733;28;20454;-73
2022/04/22 01:49:13;;;;;;;11.90;10.07;;;12.60;99.90;;;;;;5050676;28;20489;-74
2022/04/22 01:51:41;;;;;;;14.30;10.00;;;12.60;99.90;;;;;;5050771;28;20930;-74
2022/04/22 01:54:08;;;;;;;11.07;8.63;;;12.60;99.90;;;;;;5050785;28;20494;-75
2022/04/22 01:56:36;;;;;;;11.77;9.20;;;12.70;99.90;;;;;;5050923;28;20883;-73
2022/04/22 01:59:03;;;;;;;10.50;8.60;;;12.70;99.90;;;;;;5050921;28;20462;-74
2022/04/22 02:01:30;;;;;;;16.33;8.30;;;12.70;99.90;;;;;;5050204;28;20458;-75
2022/04/22 02:03:57;;;;;;;11.73;8.37;;;12.70;99.90;;;;;;5050606;28;20580;-74
2022/04/22 02:06:24;;;;;;;12.87;8.90;;;12.70;99.90;;;;;;5050634;28;20450;-74
2022/04/22 02:08:52;;;;;;;10.77;8.50;;;12.80;99.90;;;;;;5050665;28;20461;-73
2022/04/22 02:11:19;;;;;;;12.80;8.27;;;12.80;99.90;;;;;;5050137;28;20841;-74
2022/04/22 02:13:47;;;;;;;10.90;9.13;;;12.80;99.90;;;;;;5050037;28;20497;-74
2022/04/22 02:16:14;;;;;;;13.13;10.40;;;12.80;99.90;;;;;;5050191;28;20458;-73
2022/04/22 02:18:42;;;;;;;11.30;9.43;;;12.90;99.90;;;;;;5050424;28;20450;-74
2022/04/22 02:21:11;;;;;;;12.40;9.80;;;12.90;99.90;;;;;;5050203;28;20460;-73
2022/04/22 02:23:40;;;;;;;12.33;10.93;;;12.90;99.90;;;;;;5050175;28;20841;-75
2022/04/22 02:26:07;;;;;;;13.20;11.10;;;12.90;99.90;;;;;;5049973;28;20970;-74
2022/04/22 02:28:34;;;;;;;13.07;10.70;;;12.80;99.90;;;;;;5049821;28;20458;-75
2022/04/22 02:31:04;;;;;;;12.70;10.40;;;12.70;99.90;;;;;;5050161;28;20476;-74
2022/04/22 02:33:32;;;;;;;14.47;10.40;;;12.60;99.90;;;;;;5049913;28;20986;-73
2022/04/22 02:35:59;;;;;;;12.17;10.87;;;12.60;99.90;;;;;;5049758;28;20486;-73
2022/04/22 02:38:27;;;;;;;12.40;11.10;;;12.60;99.90;;;;;;5049966;28;20682;-73
2022/04/22 02:46:27;;;;;;;14.47;11.97;;;12.80;99.90;;;;;;5049965;28;20441;-73
2022/04/22 02:48:57;;;;;;;15.30;11.83;;;12.70;99.90;;;;;;5049470;28;20486;-74
2022/04/22 02:51:24;;;;;;;14.67;11.27;;;12.70;99.90;;;;;;5049622;28;20457;-74
2022/04/22 02:53:52;;;;;;;16.27;12.00;;;12.70;99.90;;;;;;5049465;28;21079;-75
2022/04/22 02:56:20;;;;;;;13.50;10.70;;;12.60;99.90;;;;;;5049721;28;20910;-73
2022/04/22 02:58:48;;;;;;;14.10;12.27;;;12.50;99.90;;;;;;5049443;28;20450;-73
2022/04/22 03:01:15;;;;;;;13.27;11.07;;;12.50;99.90;;;;;;5049821;28;20450;-73
2022/04/22 03:03:44;;;;;;;19.23;11.50;;;12.60;99.90;;;;;;5049834;28;20474;-73
2022/04/22 03:06:12;;;;;;;12.37;11.07;;;12.60;99.90;;;;;;5049595;28;20465;-74
2022/04/22 03:08:39;;;;;;;14.93;11.33;;;12.60;99.90;;;;;;5049584;28;20461;-74
2022/04/22 03:11:06;;;;;;;12.30;10.60;;;12.70;99.90;;;;;;5049165;28;20938;-73
2022/04/22 03:13:33;;;;;;;13.70;12.03;;;12.70;99.90;;;;;;5049835;28;20486;-75
2022/04/22 03:16:00;;;;;;;11.73;10.53;;;12.70;99.90;;;;;;5049869;28;20457;-75
2022/04/22 03:18:28;;;;;;;12.30;10.13;;;12.80;99.90;;;;;;5049153;28;20504;-75
2022/04/22 03:20:57;;;;;;;13.13;11.50;;;12.80;99.90;;;;;;5049220;28;20504;-74
2022/04/22 03:23:24;;;;;;;12.40;10.80;;;12.80;99.90;;;;;;5049260;28;20854;-74
2022/04/22 03:25:54;;;;;;;13.80;11.33;;;12.80;99.90;;;;;;5049513;28;20453;-75
2022/04/22 03:28:22;;;;;;;15.43;10.70;;;12.70;99.90;;;;;;5049382;28;20450;-76
2022/04/22 03:30:50;;;;;;;12.70;10.43;;;12.60;99.90;;;;;;5049617;28;20589;-73
2022/04/22 03:33:18;;;;;;;13.90;11.60;;;12.50;99.90;;;;;;5048787;28;20489;-74
2022/04/22 03:35:50;;;;;;;12.20;10.00;;;12.60;99.90;;;;;;5049376;28;20493;-74
2022/04/22 03:38:20;;;;;;;11.83;9.60;;;12.60;99.90;;;;;;5051886;28;20573;-75
2022/04/22 03:40:47;;;;;;;15.27;11.77;;;12.60;99.90;;;;;;5053357;28;20528;-73
2022/04/22 03:43:14;;;;;;;13.03;11.03;;;12.60;99.90;;;;;;5053122;28;20502;-74
2022/04/22 03:45:42;;;;;;;13.70;12.20;;;12.60;99.90;;;;;;5053514;28;20778;-75
2022/04/22 03:48:10;;;;;;;14.90;11.60;;;12.60;99.90;;;;;;5053242;28;20472;-72
2022/04/22 03:50:38;;;;;;;14.30;12.00;;;12.40;99.90;;;;;;5053362;28;20450;-75
2022/04/22 03:53:06;;;;;;;16.03;11.93;;;12.40;99.90;;;;;;5053029;28;20493;-74
2022/04/22 03:55:34;;;;;;;14.00;12.10;;;12.40;99.90;;;;;;5053400;28;20787;-74
2022/04/22 03:58:12;;;;;;;14.70;11.87;;;12.40;99.90;;;;;;5052763;28;20500;-73
2022/04/22 04:00:41;;;;;;;15.07;11.70;;;12.30;99.90;;;;;;5052857;28;20460;-74
2022/04/22 04:03:09;;;;;;;15.00;11.50;;;12.20;99.90;;;;;;5053167;28;20921;-75
2022/04/22 04:05:37;;;;;;;15.50;11.90;;;12.10;99.90;;;;;;5053022;28;20465;-73
2022/04/22 04:08:05;;;;;;;15.60;12.57;;;12.00;99.90;;;;;;5052894;28;20485;-74
2022/04/22 04:16:03;;;;;;;16.00;13.60;;;12.00;99.90;;;;;;5052861;28;20592;-75
2022/04/22 04:18:32;;;;;;;15.50;12.90;;;11.90;99.90;;;;;;5052882;28;20454;-74
2022/04/22 04:23:44;;;;;;;15.27;12.10;;;12.00;99.90;;;;;;5052346;28;20453;-74
2022/04/22 04:26:14;;;;;;;14.23;12.20;;;12.10;99.90;;;;;;5052370;28;20919;-76
2022/04/22 04:28:42;;;;;;;14.43;12.77;;;12.10;99.90;;;;;;5052551;28;20453;-74
2022/04/22 04:31:11;;;;;;;14.77;12.57;;;12.20;99.90;;;;;;5052475;28;20461;-75
2022/04/22 04:33:38;;;;;;;16.23;13.50;;;12.10;99.90;;;;;;5051980;28;20492;-74
2022/04/22 04:36:09;;;;;;;14.97;13.20;;;12.20;99.90;;;;;;5052104;28;20460;-75
2022/04/22 04:38:37;;;;;;;16.63;12.50;;;12.20;99.90;;;;;;5052441;28;20479;-75
2022/04/22 04:41:05;;;;;;;16.13;13.90;;;12.30;99.90;;;;;;5052261;28;20458;-75
2022/04/22 04:43:34;;;;;;;15.37;13.77;;;12.20;99.90;;;;;;5052410;28;20478;-74
2022/04/22 04:46:02;;;;;;;16.67;13.30;;;12.20;99.90;;;;;;5052127;28;20464;-76
2022/04/22 04:48:29;;;;;;;17.83;13.80;;;12.30;99.90;;;;;;5052012;28;20482;-75
2022/04/22 04:50:56;;;;;;;19.50;14.30;;;12.30;99.90;;;;;;5052205;28;20445;-73
2022/04/22 04:53:24;;;;;;;15.30;13.50;;;12.40;99.90;;;;;;5052549;28;20489;-73
2022/04/22 04:55:52;;;;;;;17.83;13.40;;;12.40;99.90;;;;;;5052029;28;20486;-70
2022/04/22 04:58:20;;;;;;;17.13;14.77;;;12.40;99.90;;;;;;5051892;28;20462;-72
2022/04/22 05:00:48;;;;;;;17.73;15.27;;;12.40;99.90;;;;;;5051327;28;20450;-72
2022/04/22 05:03:16;;;;;;;15.73;14.13;;;12.40;99.90;;;;;;5051647;28;20474;-73
2022/04/22 05:05:43;;;;;;;15.03;13.10;;;12.40;99.90;;;;;;5051809;28;20505;-73
2022/04/22 05:08:10;;;;;;;15.57;13.17;;;12.30;99.90;;;;;;5051741;28;20454;-72
2022/04/22 05:10:38;;;;;;;17.60;13.27;;;12.40;99.90;;;;;;5051547;28;20469;-74
2022/04/22 05:13:05;;;;;;;15.23;12.27;;;12.30;99.90;;;;;;5051059;28;20470;-73
2022/04/22 05:15:35;;;;;;;15.67;12.77;;;12.30;99.90;;;;;;5051252;28;20454;-71
2022/04/22 05:18:04;;;;;;;16.83;12.77;;;12.40;99.90;;;;;;5051134;28;20454;-71
2022/04/22 05:20:33;;;;;;;14.40;12.07;;;12.50;99.90;;;;;;5051404;28;20916;-71
2022/04/22 05:23:00;;;;;;;16.77;13.00;;;12.40;99.90;;;;;;5051559;28;20532;-72
2022/04/22 05:25:27;;;;;;;16.83;14.13;;;12.50;99.90;;;;;;5051656;28;20829;-72
2022/04/22 05:27:55;;;;;;;18.20;11.37;;;12.50;99.90;;;;;;5051373;28;20450;-73
2022/04/22 05:33:20;;;;;;;13.10;11.70;;;12.40;99.90;;;;;;5008593;28;20941;-73
2022/04/22 05:35:47;;;;;;;14.10;12.03;;;12.40;99.90;;;;;;5040994;28;20481;-71
2022/04/22 05:38:15;;;;;;;16.13;11.80;;;12.50;99.90;;;;;;5051098;28;20457;-74
2022/04/22 05:40:43;;;;;;;13.63;10.97;;;12.50;99.90;;;;;;5050913;28;20462;-73
2022/04/22 05:43:11;;;;;;;13.33;10.70;;;12.40;99.90;;;;;;5050612;28;20854;-71
2022/04/22 05:45:38;;;;;;;12.30;10.50;;;12.50;99.90;;;;;;5051477;28;20449;-74
2022/04/22 05:48:06;;;;;;;12.60;11.23;;;12.50;99.90;;;;;;5051717;28;20457;-72
2022/04/22 05:50:35;;;;;;;13.40;11.10;;;12.60;99.90;;;;;;5051867;28;20450;-72
2022/04/22 05:53:02;;;;;;;16.10;11.57;;;12.60;99.90;;;;;;5050677;28;20508;-71
2022/04/22 05:55:29;;;;;;;14.80;11.00;;;12.70;99.90;;;;;;5050758;28;20465;-72
2022/04/22 05:57:57;;;;;;;14.73;11.10;;;12.70;99.90;;;;;;5050626;28;20462;-72
2022/04/22 06:00:27;;;;;;;13.60;11.77;;;12.80;99.90;;;;;;5049704;28;20457;-73
2022/04/22 06:02:55;;;;;;;15.80;12.40;;;12.90;99.90;;;;;;5051041;28;20477;-71
2022/04/22 06:05:23;;;;;;;15.30;12.07;;;12.90;99.90;;;;;;5050533;28;20456;-73
2022/04/22 06:10:31;;;;;;;15.47;12.80;;;12.90;99.90;;;;;;5050379;28;20812;-74
2022/04/22 06:10:40;;;;;;;15.03;12.17;;;12.90;99.90;;;;;;5050479;28;20453;-73
2022/04/22 06:13:07;;;;;;;15.37;12.53;;;12.80;99.90;;;;;;5050438;28;20470;-71
2022/04/22 06:15:35;;;;;;;15.20;13.00;;;12.70;99.90;;;;;;5050374;28;20449;-75
2022/04/22 06:18:02;;;;;;;13.33;11.57;;;12.70;99.90;;;;;;5050402;28;20468;-74
2022/04/22 06:20:29;;;;;;;14.93;12.57;;;12.80;99.90;;;;;;5050324;28;20926;-75
2022/04/22 06:22:58;;;;;;;17.47;11.07;;;12.80;99.90;;;;;;5050288;28;20482;-74
2022/04/22 06:25:25;;;;;;;16.80;10.63;;;12.80;99.90;;;;;;5050638;28;20564;-74
2022/04/22 06:27:53;;;;;;;14.10;10.93;;;12.70;99.90;;;;;;5050300;28;20449;-75
2022/04/22 06:30:22;;;;;;;15.17;11.80;;;12.70;99.90;;;;;;5050218;28;20453;-75
2022/04/22 06:32:50;;;;;;;12.30;10.40;;;12.70;99.90;;;;;;5050402;28;20476;-74
2022/04/22 06:35:19;;;;;;;15.60;11.23;;;12.80;99.90;;;;;;5050056;28;20486;-74
2022/04/22 06:37:47;;;;;;;13.30;9.33;;;13.00;99.90;;;;;;5049706;28;20456;-66
2022/04/22 06:45:50;;;;;;;12.87;9.40;;;13.30;99.90;;;;;;5050179;28;20476;-68
2022/04/22 06:48:25;;;;;;;9.33;8.30;;;13.10;99.90;;;;;;5049638;28;20541;-67
2022/04/22 06:50:53;;;;;;;10.70;9.60;;;13.20;99.90;;;;;;5049854;28;20888;-66
2022/04/22 06:53:21;;;;;;;11.67;9.17;;;13.30;99.90;;;;;;5049551;28;20481;-68
2022/04/22 06:55:50;;;;;;;11.93;9.00;;;13.50;99.90;;;;;;5049765;28;20523;-69
2022/04/22 06:58:19;;;;;;;11.23;8.63;;;13.80;99.90;;;;;;5049473;28;20456;-68
2022/04/22 07:00:47;;;;;;;12.57;8.80;;;13.90;99.90;;;;;;5049678;28;20472;-68
2022/04/22 07:03:16;;;;;;;10.80;8.20;;;13.90;99.90;;;;;;5049680;28;20469;-68
2022/04/22 07:05:47;;;;;;;9.77;7.43;;;14.00;99.90;;;;;;5049355;28;20453;-70
2022/04/22 07:08:14;;;;;;;10.23;7.50;;;14.00;99.90;;;;;;5047898;28;20810;-68
2022/04/22 07:10:42;;;;;;;11.70;6.47;;;14.10;99.90;;;;;;5049300;28;20791;-69
2022/04/22 07:13:12;;;;;;;10.60;6.60;;;14.20;99.90;;;;;;5048464;28;20469;-70
2022/04/22 07:15:40;;;;;;;9.33;7.73;;;14.20;99.90;;;;;;5049440;28;20492;-69
2022/04/22 07:18:09;;;;;;;10.17;7.50;;;14.10;99.90;;;;;;5049030;28;20454;-67
2022/04/22 07:20:36;;;;;;;7.20;5.73;;;14.20;99.90;;;;;;5049669;28;20725;-70
2022/04/22 07:23:05;;;;;;;10.13;6.80;;;14.00;99.90;;;;;;5049010;28;20481;-68
2022/04/22 07:25:32;;;;;;;8.67;6.60;;;14.10;99.90;;;;;;5049394;28;20868;-68
2022/04/22 07:28:00;;;;;;;7.90;6.77;;;14.40;99.90;;;;;;5049488;28;20449;-67
2022/04/22 07:30:28;;;;;;;10.80;7.10;;;14.60;99.90;;;;;;5049484;28;20882;-69
2022/04/22 07:32:56;;;;;;;10.27;6.97;;;14.90;99.90;;;;;;5049256;28;20474;-69
2022/04/22 07:35:24;;;;;;;9.30;7.40;;;15.30;99.90;;;;;;5048800;28;20489;-69
2022/04/22 07:37:53;;;;;;;9.83;7.17;;;15.50;99.90;;;;;;5049605;28;20457;-69
2022/04/22 07:40:22;;;;;;;8.50;7.10;;;15.60;99.90;;;;;;5049396;28;20632;-68
2022/04/22 07:48:24;;;;;;;9.70;8.10;;;16.00;99.90;;;;;;5049011;28;20445;-70
2022/04/22 07:50:52;;;;;;;9.60;8.03;;;15.90;99.90;;;;;;5049222;28;20450;-67
2022/04/22 07:53:20;;;;;;;10.23;8.50;;;15.80;99.90;;;;;;5049093;28;20476;-68
2022/04/22 07:55:49;;;;;;;13.13;8.50;;;15.80;99.90;;;;;;5048999;28;20496;-69
2022/04/22 07:58:17;;;;;;;9.50;7.87;;;15.90;99.90;;;;;;5049222;28;20540;-69
2022/04/22 08:00:46;;;;;;;9.90;8.00;;;15.90;99.90;;;;;;5049093;28;20823;-68
2022/04/22 08:03:14;;;;;;;12.53;8.90;;;15.90;99.90;;;;;;5048879;28;20523;-69
2022/04/22 08:05:41;;;;;;;9.63;7.90;;;15.90;99.90;;;;;;5049168;28;20472;-68
2022/04/22 08:08:09;;;;;;;17.23;8.60;;;15.90;99.90;;;;;;5048703;28;20453;-69
2022/04/22 08:10:37;;;;;;;7.87;6.23;;;15.80;99.90;;;;;;5048889;28;20551;-69
2022/04/22 08:13:05;;;;;;;13.83;7.97;;;16.00;99.90;;;;;;5048604;28;20477;-67
2022/04/22 08:15:33;;;;;;;9.02;6.63;;;16.10;99.90;;;;;;5047701;28;20864;-70
2022/04/22 08:18:01;;;;;;;9.10;6.67;;;16.40;99.90;;;;;;5048967;28;20212;-71
2022/04/22 08:20:31;;;;;;;8.30;6.50;;;16.80;99.90;;;;;;5048845;28;20450;-69
2022/04/22 08:22:58;;;;;;;9.40;6.70;;;17.10;99.90;;;;;;5048934;28;20474;-67
2022/04/22 08:25:25;;;;;;;8.83;5.93;;;17.50;99.90;;;;;;5052197;28;20454;-69
2022/04/22 08:27:53;;;;;;;12.47;7.47;;;17.90;99.90;;;;;;5052559;28;20453;-69
2022/04/22 08:30:20;;;;;;;8.23;6.60;;;18.30;99.90;;;;;;5052585;28;20479;-69
2022/04/22 08:32:47;;;;;;;8.40;6.00;;;18.60;99.90;;;;;;5052537;28;20469;-68
2022/04/22 08:35:16;;;;;;;10.10;6.40;;;18.80;99.90;;;;;;5052158;28;20835;-70
2022/04/22 08:37:44;;;;;;;7.90;5.90;;;19.00;99.90;;;;;;5052072;28;20918;-70
2022/04/22 08:40:13;;;;;;;8.07;6.10;;;19.30;99.90;;;;;;5052035;28;20992;-70
2022/04/22 08:42:42;;;;;;;7.10;5.83;;;19.40;99.90;;;;;;5052144;28;20449;-69
2022/04/22 08:45:10;;;;;;;6.57;5.27;;;19.60;99.90;;;;;;5052128;28;20454;-70
2022/04/22 08:50:27;;;;;;;6.90;5.60;;;19.60;99.90;;;;;;5051496;28;20515;-69
2022/04/22 08:52:59;;;;;;;9.60;6.37;;;19.40;99.90;;;;;;5051633;28;20855;-69
2022/04/22 08:55:26;;;;;;;6.73;4.90;;;19.20;99.90;;;;;;5051749;28;20570;-69
2022/04/22 08:57:55;;;;;;;8.57;5.50;;;19.10;99.90;;;;;;5052101;28;20857;-68
2022/04/22 09:00:23;;;;;;;8.30;5.33;;;19.10;99.90;;;;;;5051607;28;20784;-69
2022/04/22 09:02:51;;;;;;;8.70;6.03;;;19.10;99.90;;;;;;5051559;28;20512;-69
2022/04/22 09:05:18;;;;;;;6.97;4.70;;;19.30;99.90;;;;;;5052144;28;20541;-70
2022/04/22 09:07:48;;;;;;;11.03;4.60;;;19.60;99.90;;;;;;5052163;28;20461;-69
2022/04/22 09:10:15;;;;;;;7.73;5.20;;;20.00;99.90;;;;;;5051513;28;20457;-68
2022/04/22 09:12:52;;;;;;;10.53;5.17;;;20.20;99.90;;;;;;5051040;28;20496;-69
2022/04/22 09:15:22;;;;;;;11.37;5.87;;;20.30;99.90;;;;;;5051218;28;20956;-68
2022/04/22 09:17:49;;;;;;;8.60;5.63;;;20.50;99.90;;;;;;5051620;28;20553;-69
2022/04/22 09:20:17;;;;;;;10.77;6.17;;;20.60;99.90;;;;;;5051566;28;20453;-69
2022/04/22 09:22:45;;;;;;;12.53;6.20;;;20.70;99.90;;;;;;5051578;28;20470;-69
2022/04/22 09:25:23;;;;;;;8.43;5.30;;;20.90;99.80;;;;;;5051035;28;20489;-71
2022/04/22 09:27:50;;;;;;;8.10;5.73;;;21.00;99.60;;;;;;5051400;28;20536;-68
2022/04/22 09:30:18;;;;;;;6.63;5.50;;;21.30;99.30;;;;;;5051452;28;20458;-75
2022/04/22 09:32:45;;;;;;;7.50;5.77;;;21.30;98.60;;;;;;5050778;28;20485;-69
2022/04/22 09:35:15;;;;;;;9.70;5.93;;;21.50;98.60;;;;;;5050095;28;20485;-69
2022/04/22 09:43:23;;;;;;;8.20;5.40;;;21.70;97.50;;;;;;5051133;28;20487;-69
2022/04/22 09:45:53;;;;;;;8.13;5.10;;;21.90;97.60;;;;;;5051158;28;20991;-69
2022/04/22 09:48:20;;;;;;;9.43;4.80;;;22.00;97.90;;;;;;5050850;28;20454;-69
2022/04/22 09:50:52;;;;;;;7.70;5.53;;;22.10;98.40;;;;;;5050927;28;20446;-69
2022/04/22 09:53:32;;;;;;;9.23;4.73;;;22.30;96.80;;;;;;5050856;28;20501;-69
2022/04/22 09:56:07;;;;;;;10.43;5.77;;;22.30;96.60;;;;;;5050892;28;20578;-70
2022/04/22 09:58:34;;;;;;;9.30;5.00;;;22.40;96.70;;;;;;5050886;28;20504;-71
2022/04/22 10:01:04;;;;;;;8.10;5.30;;;22.60;96.00;;;;;;5050562;28;20557;-69
2022/04/22 10:03:32;;;;;;;9.37;5.33;;;22.70;95.10;;;;;;5050815;28;20602;-69
2022/04/22 10:06:01;;;;;;;9.00;5.27;;;22.90;94.70;;;;;;5050706;28;20469;-69
2022/04/22 10:08:35;;;;;;;7.00;4.40;;;23.00;94.50;;;;;;5050853;28;20802;-69
2022/04/22 10:11:05;;;;;;;6.53;4.80;;;23.00;94.20;;;;;;5050521;28;20468;-70
2022/04/22 10:13:36;;;;;;;9.80;5.00;;;23.10;94.40;;;;;;5050308;28;20469;-70
2022/04/22 10:16:04;;;;;;;6.90;4.17;;;23.20;93.10;;;;;;5050433;28;20580;-69
2022/04/22 10:18:32;;;;;;;7.40;4.50;;;23.30;93.30;;;;;;5050552;28;20457;-69
2022/04/22 10:21:00;;;;;;;6.40;4.17;;;23.50;93.10;;;;;;5050508;28;20481;-69
2022/04/22 10:23:29;;;;;;;10.40;5.33;;;23.60;91.40;;;;;;5050387;28;20480;-69
2022/04/22 10:25:56;;;;;;;7.30;4.50;;;23.60;90.20;;;;;;5050379;28;20541;-73
2022/04/22 10:28:26;;;;;;;8.10;4.40;;;23.80;88.50;;;;;;5050082;28;20899;-74
2022/04/22 10:30:55;;;;;;;8.73;5.20;;;23.60;86.40;;;;;;5050166;28;20458;-74
2022/04/22 10:33:25;;;;;;;7.03;4.93;;;23.70;86.60;;;;;;5050019;28;20829;-73
2022/04/22 10:35:58;;;;;;;10.10;4.57;;;23.90;85.60;;;;;;5050054;28;20581;-73
2022/04/22 10:38:30;;;;;;;7.83;4.80;;;24.10;86.30;;;;;;5049981;28;20532;-74
2022/04/22 10:41:00;;;;;;;7.90;4.97;;;24.20;83.10;;;;;;5049752;28;20905;-75
2022/04/22 10:43:31;;;;;;;6.70;4.50;;;24.00;82.10;;;;;;5049929;28;20802;-74
2022/04/22 10:49:03;;;;;;;10.60;4.37;;;24.00;81.60;;;;;;5049914;28;20555;-73
2022/04/22 10:52:02;;;;;;;9.93;6.33;;;23.70;84.20;;;;;;5049139;28;20511;-73
2022/04/22 10:55:12;;;;;;;8.10;5.07;;;23.80;85.20;;;;;;5049766;28;20478;-74
2022/04/22 10:57:42;;;;;;;8.47;5.80;;;24.00;84.80;;;;;;5042530;28;20460;-73
2022/04/22 11:00:29;;;;;;;7.03;4.67;;;24.20;83.80;;;;;;5049760;28;20457;-73
2022/04/22 11:03:09;;;;;;;11.63;5.10;;;24.50;81.70;;;;;;5049632;28;20470;-74
2022/04/22 11:05:39;;;;;;;7.83;4.57;;;24.70;81.40;;;;;;5049360;28;20958;-73
2022/04/22 11:08:08;;;;;;;8.50;4.10;;;24.90;80.00;;;;;;5049457;28;20511;-73
2022/04/22 11:11:02;;;;;;;9.27;4.67;;;25.00;79.30;;;;;;5049346;28;21263;-73
2022/04/22 11:13:30;;;;;;;7.03;4.40;;;25.00;80.00;;;;;;5048898;28;20497;-73
2022/04/22 11:15:59;;;;;;;7.80;5.40;;;25.20;80.30;;;;;;5049254;28;20490;-74
2022/04/22 11:18:27;;;;;;;7.00;4.50;;;25.50;79.70;;;;;;5049130;28;20504;-73
2022/04/22 11:21:02;;;;;;;11.70;10.47;;;25.60;76.30;;;;;;5049383;28;20457;-74
2022/04/22 11:23:36;;;;;;;7.40;4.50;;;25.70;75.70;;;;;;5049421;28;20479;-74
2022/04/22 11:26:04;;;;;;;6.30;3.70;;;25.70;75.80;;;;;;5048986;28;20478;-73
2022/04/22 11:28:35;;;;;;;5.50;4.07;;;26.00;75.70;;;;;;5049438;28;20453;-74
2022/04/22 11:31:07;;;;;;;5.60;3.83;;;25.90;72.40;;;;;;5049299;28;20454;-74
2022/04/22 11:33:48;;;;;;;6.23;3.80;;;25.60;71.60;;;;;;5049320;28;20466;-74
2022/04/22 11:36:15;;;;;;;8.37;4.40;;;25.40;73.00;;;;;;5049285;28;20982;-73
2022/04/22 11:38:47;;;;;;;7.00;3.80;;;25.20;71.40;;;;;;5049155;28;20477;-72
2022/04/22 11:41:14;;;;;;;7.10;4.40;;;25.00;72.40;;;;;;5049234;28;20543;-73
2022/04/22 11:43:41;;;;;;;4.80;3.60;;;25.20;73.00;;;;;;5049013;28;20784;-73
2022/04/22 11:46:12;;;;;;;9.20;4.57;;;25.30;73.40;;;;;;5049080;28;20798;-73
2022/04/22 11:48:46;;;;;;;9.30;4.63;;;25.50;74.30;;;;;;5049031;28;20578;-73
2022/04/22 11:51:15;;;;;;;7.30;3.70;;;25.70;73.70;;;;;;5048782;28;20471;-73
2022/04/22 11:53:49;;;;;;;6.57;4.30;;;25.80;74.80;;;;;;5048823;28;20536;-74
2022/04/22 11:56:21;;;;;;;8.03;4.30;;;25.80;72.40;;;;;;5048943;28;20485;-74
2022/04/22 11:58:59;;;;;;;8.90;4.23;;;25.60;72.50;;;;;;5050932;28;20552;-74
2022/04/22 12:08:00;;;;;;;7.30;4.30;;;25.30;69.70;;;;;;5053024;28;20425;-74
2022/04/22 12:09:58;;;;;;;6.83;4.13;;;25.50;72.10;;;;;;5052167;28;20469;-73
2022/04/22 12:12:25;;;;;;;7.80;3.87;;;25.70;71.00;;;;;;5052627;28;21023;-73
2022/04/22 12:15:00;;;;;;;8.57;4.67;;;25.80;70.30;;;;;;5052724;28;20458;-73
2022/04/22 12:17:29;;;;;;;8.93;3.93;;;25.90;70.10;;;;;;5052743;28;20540;-73
2022/04/22 12:19:56;;;;;;;6.93;4.93;;;26.00;70.30;;;;;;5052910;28;20465;-73
2022/04/22 12:22:24;;;;;;;8.63;5.20;;;26.20;69.30;;;;;;5052979;28;20793;-73
2022/04/22 12:25:07;;;;;;;5.87;4.07;;;26.40;72.80;;;;;;5052657;28;20446;-74
2022/04/22 12:27:35;;;;;;;6.50;4.33;;;26.60;67.80;;;;;;5052667;28;20556;-73
2022/04/22 12:30:03;;;;;;;7.23;4.17;;;26.80;69.00;;;;;;5052411;28;20462;-71
2022/04/22 12:32:31;;;;;;;6.80;3.90;;;27.10;68.20;;;;;;5052701;28;20549;-71
2022/04/22 12:35:11;;;;;;;7.47;4.30;;;27.30;66.70;;;;;;5052693;28;20450;-74
2022/04/22 12:37:42;;;;;;;8.13;4.40;;;27.50;67.10;;;;;;5052366;28;20445;-71
2022/04/22 12:40:10;;;;;;;5.83;3.87;;;27.80;67.30;;;;;;5052135;28;20465;-75
2022/04/22 12:42:39;;;;;;;7.47;4.37;;;27.80;63.30;;;;;;5052630;28;20536;-72
2022/04/22 12:53:34;;;;;;;9.70;4.90;;;26.80;67.50;;;;;;5052082;28;20433;-73
2022/04/22 12:56:01;;;;;;;8.80;4.50;;;26.70;68.90;;;;;;5052195;28;20940;-73
2022/04/22 12:58:29;;;;;;;7.37;4.90;;;26.60;66.60;;;;;;5051896;28;20449;-73
2022/04/22 13:00:56;;;;;;;6.83;4.43;;;26.50;65.80;;;;;;5051656;28;20481;-74
2022/04/22 13:03:36;;;;;;;6.30;4.33;;;26.70;68.10;;;;;;5052396;28;20462;-74
2022/04/22 13:06:03;;;;;;;7.77;5.00;;;26.80;68.30;;;;;;5052314;28;20454;-67
2022/04/22 13:08:30;;;;;;;6.37;4.90;;;26.80;69.20;;;;;;5051902;28;20454;-72
2022/04/22 13:10:59;;;;;;;11.07;5.00;;;26.60;70.50;;;;;;5051596;28;20829;-72
2022/04/22 13:13:27;;;;;;;6.70;4.70;;;26.80;72.00;;;;;;5051902;28;20550;-72
2022/04/22 13:15:54;;;;;;;6.80;4.90;;;26.90;71.30;;;;;;5051801;28;20892;-72
2022/04/22 13:18:22;;;;;;;11.23;4.90;;;26.90;70.10;;;;;;5051795;28;20907;-72
2022/04/22 13:20:52;;;;;;;7.90;5.17;;;26.50;70.90;;;;;;5051586;28;20469;-74
2022/04/22 13:23:19;;;;;;;13.53;5.70;;;26.20;71.80;;;;;;5051771;28;20458;-73
2022/04/22 13:25:46;;;;;;;8.23;5.10;;;25.90;72.60;;;;;;5051419;28;20453;-72
2022/04/22 13:28:13;;;;;;;8.20;5.20;;;26.00;73.20;;;;;;5051937;28;20908;-72
2022/04/22 13:30:40;;;;;;;12.47;5.27;;;26.10;72.40;;;;;;5051519;28;20482;-73
2022/04/22 13:33:07;;;;;;;6.47;5.40;;;26.00;71.80;;;;;;5051385;28;20457;-72
2022/04/22 13:35:34;;;;;;;6.73;5.23;;;25.80;72.80;;;;;;5051050;28;20445;-72
2022/04/22 13:38:02;;;;;;;8.73;5.23;;;25.80;72.80;;;;;;5051350;28;20453;-74
2022/04/22 13:40:30;;;;;;;8.17;5.77;;;26.00;73.40;;;;;;5051283;28;20478;-72
2022/04/22 13:42:57;;;;;;;7.83;4.97;;;26.40;72.70;;;;;;5051189;28;20457;-70